METAR AND TAF INFORMATION
METAR FOR VIDP
ADDS - METARS form results

(2121 UTC 26 March 2019)
Data provider http://aviationweather.gov/metar/data/
 
METAR text: VIDP 262100Z 29003KT 3500 HZ NSC 22/12 Q1014 NOSIG
Conditions at: VIDP (INDIRA GANDHI/DE, IN) observed 2100 UTC 26 March 2019
Temperature: 22.0°C (72°F)
Dewpoint: 12.0°C (54°F) [RH = 53%]
Pressure (altimeter): 29.94 inches Hg (1014.0 mb)
Winds: from the WNW (290 degrees) at 3 MPH (3 knots; 1.5 m/s)
Visibility: 2.17 miles (3.49 km)
Ceiling: at least 12,000 feet AGL
Clouds: sky clear below 12,000 feet AGL
Weather: HZ  (haze)

METAR text: VIDP 262030Z 32004KT 4000 HZ NSC 22/11 Q1015 NOSIG
Conditions at: VIDP (INDIRA GANDHI/DE, IN) observed 2030 UTC 26 March 2019
Temperature: 22.0°C (72°F)
Dewpoint: 11.0°C (52°F) [RH = 50%]
Pressure (altimeter): 29.97 inches Hg (1015.0 mb)
Winds: from the NW (320 degrees) at 5 MPH (4 knots; 2.1 m/s)
Visibility: 2.49 miles (4.01 km)
Ceiling: at least 12,000 feet AGL
Clouds: sky clear below 12,000 feet AGL
Weather: HZ  (haze)

Forecast for: VIDP (INDIRA GANDHI/DE, IN)
Text: TAF VIDP 262000Z 2621/2706 29005KT 2000 HZ NSC
Forecast period: 2100 UTC 26 March 2019 to 0000 UTC 27 March 2019
Forecast type: FROM: standard forecast or significant change
Winds: from the WNW (290 degrees) at 6 MPH (5 knots; 2.6 m/s)
Visibility: 1.24 miles (2.00 km)
Ceiling: unknown
Clouds: missing
Weather: HZ  (haze)
Text: BECMG 2700/2702 24003KT 0800 MIFG FEW100
Forecast period: 0000 to 0500 UTC 27 March 2019
Forecast type: BECOMING: Conditions expected to become as follows by 0200 UTC 27 March 2019
Winds: from the WSW (240 degrees) at 3 MPH (3 knots; 1.5 m/s)
Visibility: 0.50 miles (0.80 km)
Ceiling: at least 12,000 feet AGL
Clouds: few clouds at 10000 feet AGL
Weather: MIFG  (shallow fog)
Text: BECMG 2705/2706 29006KT 3000 HZ SCT100
Forecast period: 0500 to 0600 UTC 27 March 2019
Forecast type: BECOMING: Conditions expected to become as follows by 0600 UTC 27 March 2019
Winds: from the WNW (290 degrees) at 7 MPH (6 knots; 3.1 m/s)
Visibility: 1.86 miles (2.99 km)
Ceiling: at least 12,000 feet AGL
Clouds: scattered clouds at 10000 feet AGL
Weather: HZ  (haze)

 AIRPORT MAP

 RUNWAY INFORMATION

 AIRPORT FREQUENCIES
Type APP Name DELHI APP Frequency 126.35 MHZ
Type AREA CONTR Name DELHI CONT Frequency 120.9 MHZ
Type AREA CONTR Name DELHI CONT Frequency 124.55 MHZ
Type ATIS Name ATIS Frequency 126.4 MHZ
Type CLD Name Clearance Frequency 121.95 MHZ
Type GND Name DELHI GND Frequency 121.9 MHZ
Type TWR Name DELHI TWR Frequency 118.1 MHZ
Type TWR Name DELHI TWR Frequency 118.25 MHZ
Type TWR Name DELHI TWR Frequency 118.75 MHZ

 AIRPORT NEAR NAVIGATION AIDS
Type NDB Name Delhi Frequency 202 KHZ
Type NDB Name Delhi Frequency 274 KHZ
Type VOR-DME Name Delhi Frequency 116100 KHZ
Type NDB Name Delhi Frequency 320 KHZ
Type NDB Name Delhi Frequency 303 KHZ



2018 Air Astana Virtual Airline